sensor_id;sensor_type;location;lat;lon;timestamp;P1;durP1;ratioP1;P2;durP2;ratioP2
41309;SDS011;27057;51.438;-0.010;2023-04-15T00:02:18;4.47;;;2.30;;
41309;SDS011;27057;51.438;-0.010;2023-04-15T00:04:46;6.85;;;3.05;;
41309;SDS011;27057;51.438;-0.010;2023-04-15T00:07:14;4.20;;;2.83;;
41309;SDS011;27057;51.438;-0.010;2023-04-15T00:09:42;5.13;;;2.53;;
41309;SDS011;27057;51.438;-0.010;2023-04-15T00:12:10;5.18;;;2.17;;
41309;SDS011;27057;51.438;-0.010;2023-04-15T00:14:38;5.75;;;2.75;;
41309;SDS011;27057;51.438;-0.010;2023-04-15T00:17:05;4.50;;;2.80;;
41309;SDS011;27057;51.438;-0.010;2023-04-15T00:19:33;4.82;;;2.78;;
41309;SDS011;27057;51.438;-0.010;2023-04-15T00:22:00;6.00;;;3.60;;
41309;SDS011;27057;51.438;-0.010;2023-04-15T00:24:28;8.57;;;3.63;;
41309;SDS011;27057;51.438;-0.010;2023-04-15T00:26:57;4.75;;;3.35;;
41309;SDS011;27057;51.438;-0.010;2023-04-15T00:29:24;5.60;;;2.85;;
41309;SDS011;27057;51.438;-0.010;2023-04-15T00:31:52;6.18;;;3.47;;
41309;SDS011;27057;51.438;-0.010;2023-04-15T00:34:19;4.18;;;2.85;;
41309;SDS011;27057;51.438;-0.010;2023-04-15T00:36:47;11.07;;;3.78;;
41309;SDS011;27057;51.438;-0.010;2023-04-15T00:39:14;7.55;;;3.08;;
41309;SDS011;27057;51.438;-0.010;2023-04-15T00:41:46;4.95;;;3.50;;
41309;SDS011;27057;51.438;-0.010;2023-04-15T00:44:14;5.75;;;3.05;;
41309;SDS011;27057;51.438;-0.010;2023-04-15T00:46:42;7.72;;;3.83;;
41309;SDS011;27057;51.438;-0.010;2023-04-15T00:49:11;6.70;;;3.72;;
41309;SDS011;27057;51.438;-0.010;2023-04-15T00:51:39;7.28;;;4.05;;
41309;SDS011;27057;51.438;-0.010;2023-04-15T00:54:06;8.88;;;3.88;;
41309;SDS011;27057;51.438;-0.010;2023-04-15T00:56:34;6.70;;;4.13;;
41309;SDS011;27057;51.438;-0.010;2023-04-15T00:59:04;8.95;;;5.18;;
41309;SDS011;27057;51.438;-0.010;2023-04-15T01:01:35;10.15;;;5.07;;
41309;SDS011;27057;51.438;-0.010;2023-04-15T01:04:03;7.97;;;4.28;;
41309;SDS011;27057;51.438;-0.010;2023-04-15T01:06:31;7.90;;;5.18;;
41309;SDS011;27057;51.438;-0.010;2023-04-15T01:08:59;9.45;;;5.72;;
41309;SDS011;27057;51.438;-0.010;2023-04-15T01:11:27;11.10;;;6.15;;
41309;SDS011;27057;51.438;-0.010;2023-04-15T01:13:57;11.38;;;5.45;;
41309;SDS011;27057;51.438;-0.010;2023-04-15T01:16:25;12.55;;;6.30;;
41309;SDS011;27057;51.438;-0.010;2023-04-15T01:18:54;9.85;;;6.30;;
41309;SDS011;27057;51.438;-0.010;2023-04-15T01:21:22;12.23;;;5.38;;
41309;SDS011;27057;51.438;-0.010;2023-04-15T01:23:49;11.52;;;6.05;;
41309;SDS011;27057;51.438;-0.010;2023-04-15T01:26:19;10.93;;;5.63;;
41309;SDS011;27057;51.438;-0.010;2023-04-15T01:28:47;9.43;;;5.55;;
41309;SDS011;27057;51.438;-0.010;2023-04-15T01:31:16;7.32;;;5.15;;
41309;SDS011;27057;51.438;-0.010;2023-04-15T01:33:43;11.05;;;5.88;;
41309;SDS011;27057;51.438;-0.010;2023-04-15T01:36:13;9.35;;;5.10;;
41309;SDS011;27057;51.438;-0.010;2023-04-15T01:38:41;9.75;;;5.57;;
41309;SDS011;27057;51.438;-0.010;2023-04-15T01:41:09;8.57;;;6.22;;
41309;SDS011;27057;51.438;-0.010;2023-04-15T01:43:36;8.88;;;5.75;;
41309;SDS011;27057;51.438;-0.010;2023-04-15T01:46:04;8.43;;;4.93;;
41309;SDS011;27057;51.438;-0.010;2023-04-15T01:48:31;8.93;;;4.63;;
41309;SDS011;27057;51.438;-0.010;2023-04-15T01:50:59;10.23;;;4.90;;
41309;SDS011;27057;51.438;-0.010;2023-04-15T01:53:27;9.40;;;5.18;;
41309;SDS011;27057;51.438;-0.010;2023-04-15T01:55:55;9.32;;;5.00;;
41309;SDS011;27057;51.438;-0.010;2023-04-15T01:58:22;12.18;;;6.13;;
41309;SDS011;27057;51.438;-0.010;2023-04-15T02:00:50;9.40;;;5.05;;
41309;SDS011;27057;51.438;-0.010;2023-04-15T02:03:17;12.05;;;5.70;;
41309;SDS011;27057;51.438;-0.010;2023-04-15T02:05:45;22.55;;;6.82;;
41309;SDS011;27057;51.438;-0.010;2023-04-15T02:08:12;16.00;;;6.97;;
41309;SDS011;27057;51.438;-0.010;2023-04-15T02:10:40;10.95;;;6.20;;
41309;SDS011;27057;51.438;-0.010;2023-04-15T02:13:07;9.50;;;5.47;;
41309;SDS011;27057;51.438;-0.010;2023-04-15T02:15:35;10.82;;;4.93;;
41309;SDS011;27057;51.438;-0.010;2023-04-15T02:18:03;7.53;;;4.65;;
41309;SDS011;27057;51.438;-0.010;2023-04-15T02:20:30;10.98;;;5.68;;
41309;SDS011;27057;51.438;-0.010;2023-04-15T02:22:57;9.85;;;4.97;;
41309;SDS011;27057;51.438;-0.010;2023-04-15T02:25:25;8.05;;;4.43;;
41309;SDS011;27057;51.438;-0.010;2023-04-15T02:27:52;7.38;;;4.63;;
41309;SDS011;27057;51.438;-0.010;2023-04-15T02:30:21;4.53;;;3.45;;
41309;SDS011;27057;51.438;-0.010;2023-04-15T02:32:49;6.72;;;3.95;;
41309;SDS011;27057;51.438;-0.010;2023-04-15T02:35:17;5.78;;;2.75;;
41309;SDS011;27057;51.438;-0.010;2023-04-15T02:37:45;7.25;;;3.40;;
41309;SDS011;27057;51.438;-0.010;2023-04-15T02:40:13;5.45;;;3.17;;
41309;SDS011;27057;51.438;-0.010;2023-04-15T02:42:41;6.78;;;3.90;;
41309;SDS011;27057;51.438;-0.010;2023-04-15T02:45:12;3.92;;;2.65;;
41309;SDS011;27057;51.438;-0.010;2023-04-15T02:47:40;4.63;;;3.28;;
41309;SDS011;27057;51.438;-0.010;2023-04-15T02:50:10;4.47;;;3.40;;
41309;SDS011;27057;51.438;-0.010;2023-04-15T02:52:40;7.35;;;3.53;;
41309;SDS011;27057;51.438;-0.010;2023-04-15T02:55:09;5.00;;;3.42;;
41309;SDS011;27057;51.438;-0.010;2023-04-15T02:57:37;5.13;;;3.38;;
41309;SDS011;27057;51.438;-0.010;2023-04-15T03:00:08;4.60;;;4.00;;
41309;SDS011;27057;51.438;-0.010;2023-04-15T03:02:40;5.22;;;3.65;;
41309;SDS011;27057;51.438;-0.010;2023-04-15T03:05:12;8.88;;;3.97;;
41309;SDS011;27057;51.438;-0.010;2023-04-15T03:07:48;8.70;;;4.30;;
41309;SDS011;27057;51.438;-0.010;2023-04-15T03:10:16;12.95;;;4.00;;
41309;SDS011;27057;51.438;-0.010;2023-04-15T03:12:45;8.25;;;4.68;;
41309;SDS011;27057;51.438;-0.010;2023-04-15T03:15:16;7.78;;;4.70;;
41309;SDS011;27057;51.438;-0.010;2023-04-15T03:17:47;7.97;;;4.78;;
41309;SDS011;27057;51.438;-0.010;2023-04-15T03:20:16;5.20;;;3.95;;
41309;SDS011;27057;51.438;-0.010;2023-04-15T03:22:43;8.40;;;4.05;;
41309;SDS011;27057;51.438;-0.010;2023-04-15T03:25:11;6.18;;;4.15;;
41309;SDS011;27057;51.438;-0.010;2023-04-15T03:27:38;5.75;;;4.60;;
41309;SDS011;27057;51.438;-0.010;2023-04-15T03:30:08;9.48;;;5.20;;
41309;SDS011;27057;51.438;-0.010;2023-04-15T03:32:38;8.73;;;5.07;;
41309;SDS011;27057;51.438;-0.010;2023-04-15T03:35:06;9.25;;;5.22;;
41309;SDS011;27057;51.438;-0.010;2023-04-15T03:37:34;7.78;;;5.03;;
41309;SDS011;27057;51.438;-0.010;2023-04-15T03:40:01;5.78;;;4.32;;
41309;SDS011;27057;51.438;-0.010;2023-04-15T03:42:29;8.25;;;5.13;;
41309;SDS011;27057;51.438;-0.010;2023-04-15T03:44:56;8.88;;;5.00;;
41309;SDS011;27057;51.438;-0.010;2023-04-15T03:47:24;9.32;;;5.72;;
41309;SDS011;27057;51.438;-0.010;2023-04-15T03:49:52;10.15;;;5.28;;
41309;SDS011;27057;51.438;-0.010;2023-04-15T03:52:20;8.82;;;5.50;;
41309;SDS011;27057;51.438;-0.010;2023-04-15T03:54:47;6.68;;;4.63;;
41309;SDS011;27057;51.438;-0.010;2023-04-15T03:57:14;10.18;;;5.88;;
41309;SDS011;27057;51.438;-0.010;2023-04-15T03:59:42;9.60;;;5.45;;
41309;SDS011;27057;51.438;-0.010;2023-04-15T04:02:09;8.45;;;6.00;;
41309;SDS011;27057;51.438;-0.010;2023-04-15T04:04:37;12.88;;;6.32;;
41309;SDS011;27057;51.438;-0.010;2023-04-15T04:07:04;10.48;;;6.05;;
41309;SDS011;27057;51.438;-0.010;2023-04-15T04:09:32;9.50;;;5.95;;
41309;SDS011;27057;51.438;-0.010;2023-04-15T04:12:00;9.40;;;5.30;;
41309;SDS011;27057;51.438;-0.010;2023-04-15T04:14:28;15.10;;;6.43;;
41309;SDS011;27057;51.438;-0.010;2023-04-15T04:16:55;10.32;;;5.97;;
41309;SDS011;27057;51.438;-0.010;2023-04-15T04:19:23;11.23;;;5.45;;
41309;SDS011;27057;51.438;-0.010;2023-04-15T04:21:51;6.85;;;5.75;;
41309;SDS011;27057;51.438;-0.010;2023-04-15T04:24:18;7.43;;;5.68;;
41309;SDS011;27057;51.438;-0.010;2023-04-15T04:26:46;10.88;;;5.75;;
41309;SDS011;27057;51.438;-0.010;2023-04-15T04:29:14;10.90;;;6.20;;
41309;SDS011;27057;51.438;-0.010;2023-04-15T04:31:42;8.52;;;5.78;;
41309;SDS011;27057;51.438;-0.010;2023-04-15T04:34:09;12.07;;;5.45;;
41309;SDS011;27057;51.438;-0.010;2023-04-15T04:36:36;8.35;;;5.78;;
41309;SDS011;27057;51.438;-0.010;2023-04-15T04:39:04;7.30;;;5.28;;
41309;SDS011;27057;51.438;-0.010;2023-04-15T04:41:31;8.75;;;5.47;;
41309;SDS011;27057;51.438;-0.010;2023-04-15T04:43:58;10.85;;;5.97;;
41309;SDS011;27057;51.438;-0.010;2023-04-15T04:46:26;14.00;;;6.65;;
41309;SDS011;27057;51.438;-0.010;2023-04-15T04:48:53;9.40;;;6.28;;
41309;SDS011;27057;51.438;-0.010;2023-04-15T04:51:21;15.32;;;7.93;;
41309;SDS011;27057;51.438;-0.010;2023-04-15T04:53:49;14.98;;;7.95;;
41309;SDS011;27057;51.438;-0.010;2023-04-15T04:56:16;12.10;;;7.70;;
41309;SDS011;27057;51.438;-0.010;2023-04-15T04:58:43;14.40;;;7.32;;
41309;SDS011;27057;51.438;-0.010;2023-04-15T05:01:11;15.63;;;7.75;;
41309;SDS011;27057;51.438;-0.010;2023-04-15T05:03:39;10.40;;;6.68;;
41309;SDS011;27057;51.438;-0.010;2023-04-15T05:06:07;13.27;;;7.35;;
41309;SDS011;27057;51.438;-0.010;2023-04-15T05:08:36;13.60;;;7.05;;
41309;SDS011;27057;51.438;-0.010;2023-04-15T05:11:06;13.63;;;7.57;;
41309;SDS011;27057;51.438;-0.010;2023-04-15T05:13:33;13.55;;;7.63;;
41309;SDS011;27057;51.438;-0.010;2023-04-15T05:16:04;11.13;;;7.10;;
41309;SDS011;27057;51.438;-0.010;2023-04-15T05:18:32;11.88;;;8.05;;
41309;SDS011;27057;51.438;-0.010;2023-04-15T05:21:00;12.18;;;8.07;;
41309;SDS011;27057;51.438;-0.010;2023-04-15T05:23:28;13.38;;;8.45;;
41309;SDS011;27057;51.438;-0.010;2023-04-15T05:25:55;13.20;;;7.18;;
41309;SDS011;27057;51.438;-0.010;2023-04-15T05:28:23;13.35;;;8.05;;
41309;SDS011;27057;51.438;-0.010;2023-04-15T05:30:51;10.93;;;7.32;;
41309;SDS011;27057;51.438;-0.010;2023-04-15T05:33:19;13.30;;;8.13;;
41309;SDS011;27057;51.438;-0.010;2023-04-15T05:35:46;13.35;;;7.82;;
41309;SDS011;27057;51.438;-0.010;2023-04-15T05:38:13;13.27;;;8.50;;
41309;SDS011;27057;51.438;-0.010;2023-04-15T05:40:41;14.82;;;8.27;;
41309;SDS011;27057;51.438;-0.010;2023-04-15T05:43:08;13.48;;;8.65;;
41309;SDS011;27057;51.438;-0.010;2023-04-15T05:45:36;14.65;;;8.95;;
41309;SDS011;27057;51.438;-0.010;2023-04-15T05:48:03;12.93;;;8.35;;
41309;SDS011;27057;51.438;-0.010;2023-04-15T05:50:30;13.48;;;8.98;;
41309;SDS011;27057;51.438;-0.010;2023-04-15T05:52:58;12.25;;;9.38;;
41309;SDS011;27057;51.438;-0.010;2023-04-15T05:55:26;17.88;;;9.70;;
41309;SDS011;27057;51.438;-0.010;2023-04-15T05:57:54;15.60;;;9.55;;
41309;SDS011;27057;51.438;-0.010;2023-04-15T06:00:21;12.90;;;9.00;;
41309;SDS011;27057;51.438;-0.010;2023-04-15T06:02:49;14.63;;;8.52;;
41309;SDS011;27057;51.438;-0.010;2023-04-15T06:05:16;19.38;;;9.95;;
41309;SDS011;27057;51.438;-0.010;2023-04-15T06:07:44;12.25;;;8.30;;
41309;SDS011;27057;51.438;-0.010;2023-04-15T06:10:14;13.27;;;8.65;;
41309;SDS011;27057;51.438;-0.010;2023-04-15T06:12:41;13.95;;;8.60;;
41309;SDS011;27057;51.438;-0.010;2023-04-15T06:15:09;16.52;;;7.93;;
41309;SDS011;27057;51.438;-0.010;2023-04-15T06:17:36;15.80;;;8.50;;
41309;SDS011;27057;51.438;-0.010;2023-04-15T06:20:05;12.55;;;8.52;;
41309;SDS011;27057;51.438;-0.010;2023-04-15T06:22:35;17.42;;;7.93;;
41309;SDS011;27057;51.438;-0.010;2023-04-15T06:25:04;14.57;;;7.90;;
41309;SDS011;27057;51.438;-0.010;2023-04-15T06:27:33;16.05;;;7.50;;
41309;SDS011;27057;51.438;-0.010;2023-04-15T06:30:01;10.13;;;6.95;;
41309;SDS011;27057;51.438;-0.010;2023-04-15T06:32:28;9.45;;;6.53;;
41309;SDS011;27057;51.438;-0.010;2023-04-15T06:34:56;10.85;;;6.28;;
41309;SDS011;27057;51.438;-0.010;2023-04-15T06:37:24;9.55;;;6.25;;
41309;SDS011;27057;51.438;-0.010;2023-04-15T06:39:51;8.43;;;5.95;;
41309;SDS011;27057;51.438;-0.010;2023-04-15T06:42:19;9.05;;;5.88;;
41309;SDS011;27057;51.438;-0.010;2023-04-15T06:44:47;10.23;;;6.93;;
41309;SDS011;27057;51.438;-0.010;2023-04-15T06:47:15;9.75;;;6.47;;
41309;SDS011;27057;51.438;-0.010;2023-04-15T06:49:42;10.10;;;6.90;;
41309;SDS011;27057;51.438;-0.010;2023-04-15T06:52:10;8.73;;;6.53;;
41309;SDS011;27057;51.438;-0.010;2023-04-15T06:54:38;9.23;;;7.20;;
41309;SDS011;27057;51.438;-0.010;2023-04-15T06:57:06;8.25;;;5.80;;
41309;SDS011;27057;51.438;-0.010;2023-04-15T06:59:34;11.18;;;5.90;;
41309;SDS011;27057;51.438;-0.010;2023-04-15T07:02:02;10.95;;;6.43;;
41309;SDS011;27057;51.438;-0.010;2023-04-15T07:04:30;13.23;;;6.15;;
41309;SDS011;27057;51.438;-0.010;2023-04-15T07:06:58;7.22;;;5.43;;
41309;SDS011;27057;51.438;-0.010;2023-04-15T07:09:28;8.70;;;6.00;;
41309;SDS011;27057;51.438;-0.010;2023-04-15T07:11:56;8.70;;;6.30;;
41309;SDS011;27057;51.438;-0.010;2023-04-15T07:14:23;8.70;;;5.57;;
41309;SDS011;27057;51.438;-0.010;2023-04-15T07:16:51;6.85;;;5.28;;
41309;SDS011;27057;51.438;-0.010;2023-04-15T07:19:18;8.27;;;5.75;;
41309;SDS011;27057;51.438;-0.010;2023-04-15T07:21:46;6.75;;;5.07;;
41309;SDS011;27057;51.438;-0.010;2023-04-15T07:24:13;9.23;;;5.63;;
41309;SDS011;27057;51.438;-0.010;2023-04-15T07:26:45;10.20;;;5.93;;
41309;SDS011;27057;51.438;-0.010;2023-04-15T07:29:13;8.18;;;5.88;;
41309;SDS011;27057;51.438;-0.010;2023-04-15T07:31:40;10.05;;;6.45;;
41309;SDS011;27057;51.438;-0.010;2023-04-15T07:34:08;10.75;;;7.00;;
41309;SDS011;27057;51.438;-0.010;2023-04-15T07:36:35;9.60;;;6.97;;
41309;SDS011;27057;51.438;-0.010;2023-04-15T07:39:03;21.77;;;7.80;;
41309;SDS011;27057;51.438;-0.010;2023-04-15T07:41:30;11.93;;;7.95;;
41309;SDS011;27057;51.438;-0.010;2023-04-15T07:43:58;11.32;;;7.88;;
41309;SDS011;27057;51.438;-0.010;2023-04-15T07:46:26;11.48;;;7.78;;
41309;SDS011;27057;51.438;-0.010;2023-04-15T07:48:54;12.93;;;7.75;;
41309;SDS011;27057;51.438;-0.010;2023-04-15T07:51:22;13.00;;;7.63;;
41309;SDS011;27057;51.438;-0.010;2023-04-15T07:53:49;12.52;;;8.18;;
41309;SDS011;27057;51.438;-0.010;2023-04-15T07:56:17;10.85;;;7.88;;
41309;SDS011;27057;51.438;-0.010;2023-04-15T07:58:46;14.48;;;8.13;;
41309;SDS011;27057;51.438;-0.010;2023-04-15T08:01:13;15.65;;;8.52;;
41309;SDS011;27057;51.438;-0.010;2023-04-15T08:03:41;12.20;;;8.15;;
41309;SDS011;27057;51.438;-0.010;2023-04-15T08:06:11;13.63;;;8.65;;
41309;SDS011;27057;51.438;-0.010;2023-04-15T08:08:38;12.40;;;8.25;;
41309;SDS011;27057;51.438;-0.010;2023-04-15T08:11:06;15.32;;;8.75;;
41309;SDS011;27057;51.438;-0.010;2023-04-15T08:13:33;10.98;;;7.95;;
41309;SDS011;27057;51.438;-0.010;2023-04-15T08:18:49;13.23;;;8.63;;
41309;SDS011;27057;51.438;-0.010;2023-04-15T08:21:18;13.35;;;8.82;;
41309;SDS011;27057;51.438;-0.010;2023-04-15T08:23:47;12.93;;;9.57;;
41309;SDS011;27057;51.438;-0.010;2023-04-15T08:26:16;15.45;;;8.88;;
41309;SDS011;27057;51.438;-0.010;2023-04-15T08:28:45;14.77;;;9.10;;
41309;SDS011;27057;51.438;-0.010;2023-04-15T08:31:13;21.08;;;9.73;;
41309;SDS011;27057;51.438;-0.010;2023-04-15T08:33:42;15.43;;;8.43;;
41309;SDS011;27057;51.438;-0.010;2023-04-15T08:36:09;12.05;;;8.63;;
41309;SDS011;27057;51.438;-0.010;2023-04-15T08:38:37;16.60;;;10.30;;
41309;SDS011;27057;51.438;-0.010;2023-04-15T08:41:10;12.63;;;8.95;;
41309;SDS011;27057;51.438;-0.010;2023-04-15T08:46:36;16.38;;;10.85;;
41309;SDS011;27057;51.438;-0.010;2023-04-15T08:49:05;18.10;;;10.50;;
41309;SDS011;27057;51.438;-0.010;2023-04-15T08:51:40;20.02;;;11.80;;
41309;SDS011;27057;51.438;-0.010;2023-04-15T08:54:08;18.40;;;11.15;;
41309;SDS011;27057;51.438;-0.010;2023-04-15T08:56:35;17.70;;;10.00;;
41309;SDS011;27057;51.438;-0.010;2023-04-15T08:59:04;14.93;;;10.88;;
41309;SDS011;27057;51.438;-0.010;2023-04-15T09:01:33;20.10;;;11.27;;
41309;SDS011;27057;51.438;-0.010;2023-04-15T09:04:01;16.42;;;10.73;;
41309;SDS011;27057;51.438;-0.010;2023-04-15T09:06:30;17.55;;;10.43;;
41309;SDS011;27057;51.438;-0.010;2023-04-15T09:08:57;15.50;;;10.73;;
41309;SDS011;27057;51.438;-0.010;2023-04-15T09:11:25;16.50;;;10.70;;
41309;SDS011;27057;51.438;-0.010;2023-04-15T09:13:52;18.77;;;11.27;;
41309;SDS011;27057;51.438;-0.010;2023-04-15T09:16:20;17.70;;;10.85;;
41309;SDS011;27057;51.438;-0.010;2023-04-15T09:18:48;18.70;;;10.23;;
41309;SDS011;27057;51.438;-0.010;2023-04-15T09:21:16;15.02;;;10.30;;
41309;SDS011;27057;51.438;-0.010;2023-04-15T09:23:54;15.00;;;10.63;;
41309;SDS011;27057;51.438;-0.010;2023-04-15T09:29:07;16.02;;;11.27;;
41309;SDS011;27057;51.438;-0.010;2023-04-15T09:31:36;20.38;;;10.10;;
41309;SDS011;27057;51.438;-0.010;2023-04-15T09:34:04;18.38;;;11.15;;
41309;SDS011;27057;51.438;-0.010;2023-04-15T09:39:19;21.17;;;9.95;;
41309;SDS011;27057;51.438;-0.010;2023-04-15T09:42:02;13.75;;;8.82;;
41309;SDS011;27057;51.438;-0.010;2023-04-15T09:44:33;14.52;;;8.95;;
41309;SDS011;27057;51.438;-0.010;2023-04-15T09:47:01;19.42;;;8.52;;
41309;SDS011;27057;51.438;-0.010;2023-04-15T09:49:29;16.70;;;9.05;;
41309;SDS011;27057;51.438;-0.010;2023-04-15T09:51:57;12.70;;;7.88;;
41309;SDS011;27057;51.438;-0.010;2023-04-15T09:54:32;18.30;;;9.20;;
41309;SDS011;27057;51.438;-0.010;2023-04-15T09:57:05;14.75;;;8.52;;
41309;SDS011;27057;51.438;-0.010;2023-04-15T09:59:36;17.42;;;9.65;;
41309;SDS011;27057;51.438;-0.010;2023-04-15T10:02:04;13.63;;;8.73;;
41309;SDS011;27057;51.438;-0.010;2023-04-15T10:04:34;10.75;;;7.20;;
41309;SDS011;27057;51.438;-0.010;2023-04-15T10:07:05;9.05;;;6.63;;
41309;SDS011;27057;51.438;-0.010;2023-04-15T10:09:35;14.82;;;7.38;;
41309;SDS011;27057;51.438;-0.010;2023-04-15T10:12:04;14.88;;;8.30;;
41309;SDS011;27057;51.438;-0.010;2023-04-15T10:14:34;11.15;;;7.82;;
41309;SDS011;27057;51.438;-0.010;2023-04-15T10:17:07;13.45;;;7.40;;
41309;SDS011;27057;51.438;-0.010;2023-04-15T10:19:38;11.95;;;6.57;;
41309;SDS011;27057;51.438;-0.010;2023-04-15T10:22:07;9.52;;;6.20;;
41309;SDS011;27057;51.438;-0.010;2023-04-15T10:24:34;11.50;;;6.68;;
41309;SDS011;27057;51.438;-0.010;2023-04-15T10:27:03;14.05;;;6.57;;
41309;SDS011;27057;51.438;-0.010;2023-04-15T10:29:31;15.25;;;6.65;;
41309;SDS011;27057;51.438;-0.010;2023-04-15T10:31:59;7.80;;;5.90;;
41309;SDS011;27057;51.438;-0.010;2023-04-15T10:34:27;10.40;;;5.97;;
41309;SDS011;27057;51.438;-0.010;2023-04-15T10:36:58;11.57;;;6.20;;
41309;SDS011;27057;51.438;-0.010;2023-04-15T10:39:53;13.07;;;6.70;;
41309;SDS011;27057;51.438;-0.010;2023-04-15T10:42:19;16.63;;;10.30;;
41309;SDS011;27057;51.438;-0.010;2023-04-15T10:44:50;15.10;;;8.75;;
41309;SDS011;27057;51.438;-0.010;2023-04-15T10:47:22;10.32;;;6.85;;
41309;SDS011;27057;51.438;-0.010;2023-04-15T10:49:56;18.73;;;8.15;;
41309;SDS011;27057;51.438;-0.010;2023-04-15T10:52:28;27.75;;;8.70;;
41309;SDS011;27057;51.438;-0.010;2023-04-15T10:55:03;20.25;;;8.85;;
41309;SDS011;27057;51.438;-0.010;2023-04-15T10:57:46;17.50;;;7.75;;
41309;SDS011;27057;51.438;-0.010;2023-04-15T11:00:17;11.82;;;7.65;;
41309;SDS011;27057;51.438;-0.010;2023-04-15T11:02:46;16.05;;;6.93;;
41309;SDS011;27057;51.438;-0.010;2023-04-15T11:05:19;12.93;;;6.70;;
41309;SDS011;27057;51.438;-0.010;2023-04-15T11:12:48;11.95;;;6.63;;
41309;SDS011;27057;51.438;-0.010;2023-04-15T11:15:37;12.43;;;6.20;;
41309;SDS011;27057;51.438;-0.010;2023-04-15T11:20:50;12.73;;;5.50;;
41309;SDS011;27057;51.438;-0.010;2023-04-15T11:25:55;9.02;;;5.88;;
41309;SDS011;27057;51.438;-0.010;2023-04-15T11:28:28;12.75;;;6.15;;
41309;SDS011;27057;51.438;-0.010;2023-04-15T11:30:56;12.63;;;6.68;;
41309;SDS011;27057;51.438;-0.010;2023-04-15T11:33:24;8.80;;;6.05;;
41309;SDS011;27057;51.438;-0.010;2023-04-15T11:35:52;13.23;;;5.80;;
41309;SDS011;27057;51.438;-0.010;2023-04-15T11:38:21;19.35;;;9.05;;
41309;SDS011;27057;51.438;-0.010;2023-04-15T11:40:49;10.20;;;4.35;;
41309;SDS011;27057;51.438;-0.010;2023-04-15T11:43:19;10.60;;;6.32;;
41309;SDS011;27057;51.438;-0.010;2023-04-15T11:45:51;11.02;;;5.80;;
41309;SDS011;27057;51.438;-0.010;2023-04-15T11:48:24;13.10;;;5.40;;
41309;SDS011;27057;51.438;-0.010;2023-04-15T11:50:59;12.35;;;4.95;;
41309;SDS011;27057;51.438;-0.010;2023-04-15T11:53:38;18.75;;;6.63;;
41309;SDS011;27057;51.438;-0.010;2023-04-15T11:56:08;15.38;;;5.82;;
41309;SDS011;27057;51.438;-0.010;2023-04-15T11:58:37;14.32;;;5.10;;
41309;SDS011;27057;51.438;-0.010;2023-04-15T12:01:05;9.70;;;4.85;;
41309;SDS011;27057;51.438;-0.010;2023-04-15T12:08:51;7.63;;;4.65;;
41309;SDS011;27057;51.438;-0.010;2023-04-15T12:14:18;10.20;;;5.78;;
41309;SDS011;27057;51.438;-0.010;2023-04-15T12:16:51;17.90;;;5.35;;
41309;SDS011;27057;51.438;-0.010;2023-04-15T12:21:51;11.95;;;5.68;;
41309;SDS011;27057;51.438;-0.010;2023-04-15T12:24:25;9.18;;;5.18;;
41309;SDS011;27057;51.438;-0.010;2023-04-15T12:26:53;18.80;;;5.80;;
41309;SDS011;27057;51.438;-0.010;2023-04-15T12:29:26;12.05;;;5.80;;
41309;SDS011;27057;51.438;-0.010;2023-04-15T12:31:56;11.25;;;4.55;;
41309;SDS011;27057;51.438;-0.010;2023-04-15T12:34:25;15.57;;;4.75;;
41309;SDS011;27057;51.438;-0.010;2023-04-15T12:36:53;11.27;;;4.30;;
41309;SDS011;27057;51.438;-0.010;2023-04-15T12:39:22;9.98;;;4.63;;
41309;SDS011;27057;51.438;-0.010;2023-04-15T12:41:51;20.33;;;6.00;;
41309;SDS011;27057;51.438;-0.010;2023-04-15T12:44:18;14.77;;;5.28;;
41309;SDS011;27057;51.438;-0.010;2023-04-15T12:46:48;13.23;;;5.05;;
41309;SDS011;27057;51.438;-0.010;2023-04-15T12:49:16;10.95;;;4.60;;
41309;SDS011;27057;51.438;-0.010;2023-04-15T12:51:51;11.00;;;4.30;;
41309;SDS011;27057;51.438;-0.010;2023-04-15T12:54:20;14.38;;;3.92;;
41309;SDS011;27057;51.438;-0.010;2023-04-15T12:56:48;11.32;;;3.83;;
41309;SDS011;27057;51.438;-0.010;2023-04-15T12:59:16;15.10;;;4.28;;
41309;SDS011;27057;51.438;-0.010;2023-04-15T13:01:47;7.75;;;3.78;;
41309;SDS011;27057;51.438;-0.010;2023-04-15T13:04:15;8.23;;;3.75;;
41309;SDS011;27057;51.438;-0.010;2023-04-15T13:06:42;9.35;;;4.50;;
41309;SDS011;27057;51.438;-0.010;2023-04-15T13:09:10;13.13;;;4.97;;
41309;SDS011;27057;51.438;-0.010;2023-04-15T13:11:37;16.23;;;4.68;;
41309;SDS011;27057;51.438;-0.010;2023-04-15T13:14:05;14.65;;;5.55;;
41309;SDS011;27057;51.438;-0.010;2023-04-15T13:16:34;13.82;;;5.05;;
41309;SDS011;27057;51.438;-0.010;2023-04-15T13:19:02;16.80;;;6.90;;
41309;SDS011;27057;51.438;-0.010;2023-04-15T13:21:30;14.20;;;4.90;;
41309;SDS011;27057;51.438;-0.010;2023-04-15T13:24:02;16.63;;;5.50;;
41309;SDS011;27057;51.438;-0.010;2023-04-15T13:26:31;9.73;;;3.20;;
41309;SDS011;27057;51.438;-0.010;2023-04-15T13:28:58;11.45;;;4.15;;
41309;SDS011;27057;51.438;-0.010;2023-04-15T13:31:26;12.10;;;4.15;;
41309;SDS011;27057;51.438;-0.010;2023-04-15T13:33:55;11.75;;;3.70;;
41309;SDS011;27057;51.438;-0.010;2023-04-15T13:36:23;10.70;;;4.10;;
41309;SDS011;27057;51.438;-0.010;2023-04-15T13:38:52;13.13;;;5.18;;
41309;SDS011;27057;51.438;-0.010;2023-04-15T13:41:19;8.63;;;4.00;;
41309;SDS011;27057;51.438;-0.010;2023-04-15T13:43:47;14.70;;;4.50;;
41309;SDS011;27057;51.438;-0.010;2023-04-15T13:46:14;7.65;;;3.50;;
41309;SDS011;27057;51.438;-0.010;2023-04-15T13:48:42;16.13;;;3.78;;
41309;SDS011;27057;51.438;-0.010;2023-04-15T13:51:09;12.65;;;3.85;;
41309;SDS011;27057;51.438;-0.010;2023-04-15T13:53:36;17.92;;;5.72;;
41309;SDS011;27057;51.438;-0.010;2023-04-15T13:56:08;10.25;;;3.63;;
41309;SDS011;27057;51.438;-0.010;2023-04-15T13:58:36;9.32;;;4.75;;
41309;SDS011;27057;51.438;-0.010;2023-04-15T14:01:04;13.13;;;6.15;;
41309;SDS011;27057;51.438;-0.010;2023-04-15T14:03:33;15.77;;;5.07;;
41309;SDS011;27057;51.438;-0.010;2023-04-15T14:06:03;12.93;;;4.85;;
41309;SDS011;27057;51.438;-0.010;2023-04-15T14:08:30;12.10;;;3.25;;
41309;SDS011;27057;51.438;-0.010;2023-04-15T14:10:58;18.77;;;3.53;;
41309;SDS011;27057;51.438;-0.010;2023-04-15T14:13:26;17.40;;;3.85;;
41309;SDS011;27057;51.438;-0.010;2023-04-15T14:15:53;10.48;;;3.58;;
41309;SDS011;27057;51.438;-0.010;2023-04-15T14:18:22;14.20;;;5.78;;
41309;SDS011;27057;51.438;-0.010;2023-04-15T14:20:49;16.88;;;4.82;;
41309;SDS011;27057;51.438;-0.010;2023-04-15T14:23:17;11.25;;;3.30;;
41309;SDS011;27057;51.438;-0.010;2023-04-15T14:25:45;12.82;;;3.97;;
41309;SDS011;27057;51.438;-0.010;2023-04-15T14:28:14;13.65;;;4.25;;
41309;SDS011;27057;51.438;-0.010;2023-04-15T14:30:41;20.92;;;9.13;;
41309;SDS011;27057;51.438;-0.010;2023-04-15T14:33:09;18.08;;;5.63;;
41309;SDS011;27057;51.438;-0.010;2023-04-15T14:35:37;9.40;;;4.32;;
41309;SDS011;27057;51.438;-0.010;2023-04-15T14:38:04;15.38;;;5.70;;
41309;SDS011;27057;51.438;-0.010;2023-04-15T14:40:36;12.23;;;3.60;;
41309;SDS011;27057;51.438;-0.010;2023-04-15T14:43:03;9.20;;;3.15;;
41309;SDS011;27057;51.438;-0.010;2023-04-15T14:45:30;10.55;;;3.90;;
41309;SDS011;27057;51.438;-0.010;2023-04-15T14:47:58;17.85;;;4.32;;
41309;SDS011;27057;51.438;-0.010;2023-04-15T14:50:25;12.38;;;4.85;;
41309;SDS011;27057;51.438;-0.010;2023-04-15T14:52:53;13.57;;;4.72;;
41309;SDS011;27057;51.438;-0.010;2023-04-15T14:55:20;9.73;;;3.60;;
41309;SDS011;27057;51.438;-0.010;2023-04-15T14:57:47;18.52;;;3.63;;
41309;SDS011;27057;51.438;-0.010;2023-04-15T15:00:14;10.40;;;3.50;;
41309;SDS011;27057;51.438;-0.010;2023-04-15T15:02:42;12.80;;;3.80;;
41309;SDS011;27057;51.438;-0.010;2023-04-15T15:05:09;13.35;;;4.10;;
41309;SDS011;27057;51.438;-0.010;2023-04-15T15:07:38;12.82;;;4.82;;